Time;durP1;ratioP1;P1;durP2;ratioP2;P2;SDS_P1;SDS_P2;PMS_P1;PMS_P2;Temp;Humidity;BMP_temperature;BMP_pressure;BME280_temperature;BME280_humidity;BME280_pressure;Samples;Min_cycle;Max_cycle;Signal;HPM_P1;HPM_P2
2022/04/02 00:02:21;;;;;;;5.50;3.40;;;;;;;6.98;53.52;101396.84;5073750;28;20033;-65
2022/04/02 00:04:49;;;;;;;6.38;3.13;;;;;;;6.96;53.56;101395.19;5073730;28;20040;-64
2022/04/02 00:07:16;;;;;;;3.80;2.90;;;;;;;6.91;53.43;101395.41;5056138;28;20040;-64
2022/04/02 00:09:43;;;;;;;5.40;3.05;;;;;;;6.86;53.47;101392.06;5074110;28;20394;-65
2022/04/02 00:12:09;;;;;;;4.97;2.83;;;;;;;6.83;53.37;101402.91;5055428;28;20047;-65
2022/04/02 00:14:36;;;;;;;6.93;3.85;;;;;;;6.81;53.52;101407.44;5072397;28;20044;-65
2022/04/02 00:17:03;;;;;;;4.45;2.92;;;;;;;6.79;53.46;101408.47;5073421;28;20127;-64
2022/04/02 00:19:30;;;;;;;3.70;2.63;;;;;;;6.77;53.44;101405.84;5073009;28;20044;-64
2022/04/02 00:21:57;;;;;;;4.45;3.03;;;;;;;6.77;53.45;101415.66;5073296;28;20055;-64
2022/04/02 00:24:24;;;;;;;5.18;2.90;;;;;;;6.75;53.46;101406.88;5073738;28;20040;-65
2022/04/02 00:26:51;;;;;;;4.47;2.85;;;;;;;6.73;53.40;101409.59;5073369;28;20119;-64
2022/04/02 00:29:18;;;;;;;6.72;3.28;;;;;;;6.74;53.42;101413.16;5072959;28;20449;-65
2022/04/02 00:31:44;;;;;;;5.13;3.03;;;;;;;6.72;53.29;101409.69;5073074;28;20052;-65
2022/04/02 00:34:11;;;;;;;3.78;2.88;;;;;;;6.73;53.49;101414.06;5072886;28;20080;-65
2022/04/02 00:36:38;;;;;;;4.20;3.20;;;;;;;6.72;53.37;101412.34;5073427;28;20079;-66
2022/04/02 00:39:07;;;;;;;4.55;3.78;;;;;;;6.72;53.26;101415.03;5072980;28;20059;-64
2022/04/02 00:41:34;;;;;;;4.18;3.10;;;;;;;6.70;53.31;101399.06;5072964;28;20029;-65
2022/04/02 00:44:12;;;;;;;6.70;2.88;;;;;;;6.69;53.22;101408.00;5073191;28;20037;-66
2022/04/02 00:46:41;;;;;;;6.78;2.97;;;;;;;6.68;53.19;101403.59;5054314;28;20048;-66
2022/04/02 00:49:09;;;;;;;6.55;3.10;;;;;;;6.68;53.29;101407.13;5072790;28;20043;-65
2022/04/02 00:51:42;;;;;;;4.80;3.00;;;;;;;6.67;53.21;101407.19;5072881;28;20059;-66
2022/04/02 00:54:12;;;;;;;3.90;2.55;;;;;;;6.65;53.09;101407.25;5072978;28;20482;-65
2022/04/02 00:56:41;;;;;;;4.18;2.75;;;;;;;6.63;53.08;101402.94;5073846;28;20036;-65
2022/04/02 00:59:09;;;;;;;4.57;2.67;;;;;;;6.61;53.06;101402.13;5061288;28;20044;-65
2022/04/02 01:01:37;;;;;;;4.55;2.83;;;;;;;6.62;53.10;101398.53;5060779;28;20074;-65
2022/04/02 01:04:07;;;;;;;4.38;2.60;;;;;;;6.62;52.83;101401.19;5077608;28;20044;-65
2022/04/02 01:06:41;;;;;;;6.18;2.70;;;;;;;6.61;53.08;101400.31;5079910;28;20474;-65
2022/04/02 01:09:13;;;;;;;4.00;2.72;;;;;;;6.61;52.87;101405.66;5079055;28;20044;-65
2022/04/02 01:11:46;;;;;;;4.40;2.40;;;;;;;6.60;52.99;101403.06;5061414;28;20049;-64
2022/04/02 01:14:13;;;;;;;3.83;2.08;;;;;;;6.57;52.79;101403.22;5061447;28;20501;-64
2022/04/02 01:16:43;;;;;;;5.55;2.63;;;;;;;6.55;52.59;101402.41;5061276;28;20490;-65
2022/04/02 01:19:18;;;;;;;3.83;2.22;;;;;;;6.54;52.70;101408.69;5077956;28;20132;-64
2022/04/02 01:21:46;;;;;;;5.15;2.50;;;;;;;6.53;52.54;101404.28;5061238;28;20055;-65
2022/04/02 01:24:21;;;;;;;3.00;2.03;;;;;;;6.52;52.44;101402.56;5061722;28;20045;-65
2022/04/02 01:26:52;;;;;;;5.10;2.15;;;;;;;6.50;52.46;101399.94;5061547;28;20032;-65
2022/04/02 01:29:22;;;;;;;5.35;1.80;;;;;;;6.49;52.32;101400.03;5061340;28;20052;-65
2022/04/02 01:31:56;;;;;;;2.72;1.85;;;;;;;6.48;52.10;101412.50;5061002;28;20037;-66
2022/04/02 01:34:25;;;;;;;3.45;2.15;;;;;;;6.48;52.07;101406.28;5061409;28;20476;-66
2022/04/02 01:36:55;;;;;;;3.33;2.30;;;;;;;6.49;52.14;101408.91;5061295;28;20421;-65
2022/04/02 01:39:28;;;;;;;2.78;1.83;;;;;;;6.50;51.90;101407.09;5079298;28;20047;-65
2022/04/02 01:41:55;;;;;;;3.78;2.13;;;;;;;6.48;51.83;101396.50;5079284;28;20123;-65
2022/04/02 01:44:29;;;;;;;3.83;1.95;;;;;;;6.47;51.71;101405.44;5041786;28;20048;-65
2022/04/02 01:46:56;;;;;;;2.90;2.05;;;;;;;6.47;51.63;101404.56;5070902;28;20124;-65
2022/04/02 01:49:24;;;;;;;2.30;1.67;;;;;;;6.47;51.68;101402.75;5058009;28;20041;-65
2022/04/02 01:51:52;;;;;;;3.75;1.83;;;;;;;6.47;51.69;101413.44;5046401;28;20067;-65
2022/04/02 01:54:20;;;;;;;1.90;1.70;;;;;;;6.47;51.50;101407.22;5061385;28;20068;-65
2022/04/02 01:56:54;;;;;;;;;;;;;;;6.45;51.55;101409.97;5041830;28;20127;-65
2022/04/02 01:59:21;;;;;;;7.30;2.28;;;;;;;6.49;51.32;101416.03;5056171;28;19921;-64
2022/04/02 02:01:50;;;;;;;4.28;2.20;;;;;;;6.45;51.41;101415.31;5056975;28;20048;-65
2022/04/02 02:04:18;;;;;;;4.80;2.35;;;;;;;6.42;51.18;101418.09;5041531;28;20462;-64
2022/04/02 02:06:45;;;;;;;4.65;2.40;;;;;;;6.41;51.27;101419.03;5058889;28;20191;-65
2022/04/02 02:09:15;;;;;;;3.45;2.13;;;;;;;6.41;51.27;101418.19;5038161;28;20056;-65
2022/04/02 02:11:47;;;;;;;3.63;2.33;;;;;;;6.37;51.25;101420.13;5038811;28;20053;-65
2022/04/02 02:14:19;;;;;;;4.20;1.92;;;;;;;6.35;51.19;101420.19;5055988;28;20053;-65
2022/04/02 02:16:55;;;;;;;2.35;2.15;;;;;;;6.34;51.11;101423.78;5038041;28;20461;-64
2022/04/02 02:19:23;;;;;;;5.63;2.40;;;;;;;6.33;51.19;101406.03;5037531;28;20087;-64
2022/04/02 02:21:50;;;;;;;2.45;1.90;;;;;;;6.32;51.23;101422.13;5037597;28;20045;-65
2022/04/02 02:24:18;;;;;;;3.08;2.15;;;;;;;6.30;51.08;101419.53;5055510;28;20061;-65
2022/04/02 02:26:45;;;;;;;4.30;2.15;;;;;;;6.27;51.11;101419.66;5037814;28;20556;-64
2022/04/02 02:29:20;;;;;;;4.20;2.40;;;;;;;6.27;51.16;101421.47;5037652;28;20115;-64
2022/04/02 02:31:47;;;;;;;3.17;2.03;;;;;;;6.26;51.15;101420.59;5037693;28;20120;-64
2022/04/02 02:37:05;;;;;;;3.65;2.28;;;;;;;6.27;50.98;101419.66;5037420;28;20136;-65
2022/04/02 02:39:34;;;;;;;3.63;2.00;;;;;;;6.26;51.01;101412.59;5037382;28;20045;-65
2022/04/02 02:42:12;;;;;;;3.28;2.50;;;;;;;6.26;51.01;101419.72;5037918;28;20045;-64
2022/04/02 02:44:47;;;;;;;2.50;1.92;;;;;;;6.24;50.95;101414.47;5022262;28;20046;-65
2022/04/02 02:47:18;;;;;;;3.63;1.80;;;;;;;6.25;50.61;101416.19;5006856;28;20045;-66
2022/04/02 02:49:46;;;;;;;4.07;2.30;;;;;;;6.26;50.88;101409.06;5034408;28;20425;-65
2022/04/02 02:52:18;;;;;;;1.88;1.70;;;;;;;6.26;50.64;101411.72;5021451;28;20045;-64
2022/04/02 02:54:46;;;;;;;2.70;1.80;;;;;;;6.24;50.49;101401.13;5040244;28;20036;-66
2022/04/02 02:57:12;;;;;;;2.20;1.67;;;;;;;6.22;50.51;101421.66;5057075;28;20045;-65
2022/04/02 02:59:40;;;;;;;5.57;2.15;;;;;;;6.20;50.47;101420.88;5056999;28;20091;-65
2022/04/02 03:02:07;;;;;;;2.67;1.80;;;;;;;6.20;50.31;101415.53;5056830;28;20127;-64
2022/04/02 03:04:34;;;;;;;3.40;1.75;;;;;;;6.20;50.37;101414.66;5075076;28;20048;-65
2022/04/02 03:07:09;;;;;;;5.32;1.80;;;;;;;6.21;50.42;101405.72;5057033;28;20090;-65
2022/04/02 03:09:39;;;;;;;4.72;1.98;;;;;;;6.22;50.26;101410.13;5056911;28;20044;-64
2022/04/02 03:12:07;;;;;;;2.90;1.60;;;;;;;6.21;50.13;101403.06;5056600;28;20067;-64
2022/04/02 03:14:36;;;;;;;3.08;1.77;;;;;;;6.21;50.08;101419.06;5040461;28;20051;-65
2022/04/02 03:17:04;;;;;;;2.65;1.85;;;;;;;6.20;50.15;101415.53;5056868;28;20084;-64
2022/04/02 03:19:31;;;;;;;2.63;1.80;;;;;;;6.19;50.17;101413.78;5056424;28;20040;-65
2022/04/02 03:21:58;;;;;;;2.75;2.03;;;;;;;6.18;49.86;101421.88;5056410;28;20091;-65
2022/04/02 03:24:24;;;;;;;5.38;1.80;;;;;;;6.18;49.93;101424.53;5056759;28;20049;-65
2022/04/02 03:26:51;;;;;;;4.22;2.05;;;;;;;6.18;49.82;101422.72;5056625;28;20068;-64
2022/04/02 03:29:31;;;;;;;3.97;1.77;;;;;;;6.18;49.86;101436.06;5074172;28;20467;-65
2022/04/02 03:32:02;;;;;;;3.45;1.67;;;;;;;6.18;49.89;101430.72;5056490;28;20119;-63
2022/04/02 03:34:31;;;;;;;3.17;1.85;;;;;;;6.19;49.88;101444.94;5074384;28;20119;-64
2022/04/02 03:36:58;;;;;;;3.10;2.08;;;;;;;6.20;49.88;101438.66;5057069;28;20390;-65
2022/04/02 03:39:25;;;;;;;3.33;2.17;;;;;;;6.18;49.78;101430.72;5056240;28;20048;-64
2022/04/02 03:41:54;;;;;;;2.85;1.85;;;;;;;6.16;49.82;101456.59;5056181;28;20052;-65
2022/04/02 03:44:21;;;;;;;3.70;2.10;;;;;;;6.18;49.77;101445.88;5056322;28;20045;-64
2022/04/02 03:49:42;;;;;;;2.72;1.92;;;;;;;6.16;49.60;101453.06;5059975;28;20044;-65
2022/04/02 03:52:10;;;;;;;3.08;2.00;;;;;;;6.15;49.57;101457.53;5057592;28;20040;-65
2022/04/02 03:54:38;;;;;;;3.38;2.05;;;;;;;6.16;49.54;101453.94;5073872;28;20116;-66
2022/04/02 03:57:08;;;;;;;5.32;2.10;;;;;;;6.15;49.64;101451.34;5056128;28;20040;-66
2022/04/02 03:59:36;;;;;;;3.17;2.00;;;;;;;6.15;49.42;101460.19;5055979;28;20049;-65
2022/04/02 04:02:06;;;;;;;4.70;2.03;;;;;;;6.15;49.47;101462.00;5055872;28;20052;-65
2022/04/02 04:04:33;;;;;;;4.65;2.25;;;;;;;6.14;49.39;101458.47;5056204;28;20094;-65
2022/04/02 04:07:00;;;;;;;6.47;2.30;;;;;;;6.15;49.41;101465.53;5073628;28;20474;-65
2022/04/02 04:09:28;;;;;;;3.67;1.92;;;;;;;6.17;49.35;101462.81;5055579;28;20098;-65
2022/04/02 04:11:56;;;;;;;3.50;2.03;;;;;;;6.17;49.32;101469.00;5055651;28;20139;-64
2022/04/02 04:14:26;;;;;;;5.00;2.22;;;;;;;6.18;49.44;101473.41;5074405;28;20057;-65
2022/04/02 04:16:54;;;;;;;3.22;2.15;;;;;;;6.19;49.42;101479.59;5055707;28;20040;-64
2022/04/02 04:19:22;;;;;;;4.18;1.95;;;;;;;6.19;49.46;101477.81;5055343;28;20041;-64
2022/04/02 04:21:50;;;;;;;4.20;2.30;;;;;;;6.19;49.32;101477.81;5071987;28;20059;-64
2022/04/02 04:24:18;;;;;;;4.10;2.20;;;;;;;6.20;49.51;101487.53;5055547;28;20044;-65
2022/04/02 04:26:45;;;;;;;3.38;2.33;;;;;;;6.22;49.42;101482.13;5060180;28;20067;-66
2022/04/02 04:29:12;;;;;;;3.55;1.98;;;;;;;6.24;49.51;101485.59;5071961;28;20094;-64
2022/04/02 04:31:39;;;;;;;4.38;2.35;;;;;;;6.24;49.32;101486.47;5054539;28;20166;-65
2022/04/02 04:34:06;;;;;;;4.28;2.10;;;;;;;6.24;49.71;101489.13;5055553;28;20048;-65
2022/04/02 04:36:33;;;;;;;5.70;3.17;;;;;;;6.22;49.52;101483.00;5073273;28;20136;-65
2022/04/02 04:39:02;;;;;;;4.18;2.40;;;;;;;6.21;49.54;101485.75;5054991;28;20041;-65
2022/04/02 04:41:38;;;;;;;3.63;2.13;;;;;;;6.20;49.53;101494.66;5056290;28;20054;-65
2022/04/02 04:44:05;;;;;;;6.43;2.70;;;;;;;6.18;49.35;101497.41;5055438;28;20056;-65
2022/04/02 04:46:40;;;;;;;;;;;;;;;6.14;49.57;101495.81;5072550;28;20132;-65
2022/04/02 04:49:10;;;;;;;2.28;1.95;;;;;;;6.14;49.33;101498.47;5072915;28;19924;-65
2022/04/02 04:51:39;;;;;;;3.90;2.22;;;;;;;6.11;49.45;101501.25;5071816;28;20044;-65
2022/04/02 04:54:06;;;;;;;4.18;2.42;;;;;;;6.07;49.51;101499.66;5054894;28;20044;-65
2022/04/02 04:56:37;;;;;;;5.93;3.13;;;;;;;6.06;49.55;101513.91;5068671;28;20037;-65
2022/04/02 04:59:04;;;;;;;3.72;2.40;;;;;;;6.05;49.40;101514.84;5071689;28;20040;-65
2022/04/02 05:01:32;;;;;;;2.67;1.98;;;;;;;6.03;49.50;101516.72;5055067;28;20127;-65
2022/04/02 05:03:59;;;;;;;5.93;2.88;;;;;;;6.02;49.55;101513.19;5054791;28;20402;-64
2022/04/02 05:06:29;;;;;;;3.42;2.45;;;;;;;6.01;49.37;101521.25;5055007;28;20095;-65
2022/04/02 05:08:56;;;;;;;4.30;2.47;;;;;;;6.00;49.42;101519.50;5055068;28;20143;-64
2022/04/02 05:11:30;;;;;;;2.85;2.03;;;;;;;5.99;49.61;101523.09;5071284;28;20045;-64
2022/04/02 05:13:57;;;;;;;4.13;2.30;;;;;;;5.98;49.51;101526.69;5053242;28;20040;-64
2022/04/02 05:16:26;;;;;;;3.55;1.90;;;;;;;5.97;49.58;101530.31;5054862;28;20048;-64
2022/04/02 05:18:55;;;;;;;4.22;2.30;;;;;;;5.96;49.31;101533.91;5054680;28;20036;-64
2022/04/02 05:21:22;;;;;;;4.15;2.20;;;;;;;5.96;49.59;101528.56;5054870;28;20502;-64
2022/04/02 05:23:49;;;;;;;4.65;2.30;;;;;;;5.95;49.47;101527.69;5054960;28;20098;-64
2022/04/02 05:26:17;;;;;;;3.58;2.13;;;;;;;5.94;49.35;101531.25;5054904;28;20041;-65
2022/04/02 05:28:52;;;;;;;3.77;2.50;;;;;;;5.93;49.40;101540.19;5054104;28;20127;-64
2022/04/02 05:31:18;;;;;;;3.50;2.10;;;;;;;5.92;49.56;101537.59;5072663;28;20318;-64
2022/04/02 05:33:45;;;;;;;3.63;2.30;;;;;;;5.92;49.32;101548.25;5072749;28;20123;-64
2022/04/02 05:36:12;;;;;;;3.20;2.42;;;;;;;5.91;49.48;101549.19;5054792;28;20053;-64
2022/04/02 05:38:39;;;;;;;3.85;2.28;;;;;;;5.91;49.43;101557.19;5054579;28;20090;-65
2022/04/02 05:41:05;;;;;;;3.35;2.40;;;;;;;5.92;49.47;101553.59;5072808;28;20044;-64
2022/04/02 05:43:32;;;;;;;3.33;2.40;;;;;;;5.93;49.34;101555.31;5056047;28;20105;-64
2022/04/02 05:45:59;;;;;;;10.10;2.53;;;;;;;5.94;49.41;101563.25;5058613;28;20102;-64
2022/04/02 05:48:28;;;;;;;3.40;2.53;;;;;;;5.95;49.38;101562.34;5076246;28;20053;-64
2022/04/02 05:50:55;;;;;;;4.43;2.47;;;;;;;5.96;49.38;101560.56;5058611;28;20409;-64
2022/04/02 05:53:21;;;;;;;3.90;2.08;;;;;;;5.96;49.51;101561.44;5076153;28;20055;-64
2022/04/02 05:55:48;;;;;;;4.03;2.35;;;;;;;5.97;49.36;101556.97;5076193;28;20544;-64
2022/04/02 05:58:15;;;;;;;3.33;1.95;;;;;;;5.98;49.46;101569.38;5058137;28;20387;-64
2022/04/02 06:00:42;;;;;;;4.15;1.98;;;;;;;5.98;49.27;101566.69;5058045;28;20487;-64
2022/04/02 06:03:09;;;;;;;3.67;2.38;;;;;;;5.98;49.31;101578.22;5074973;28;20036;-64
2022/04/02 06:05:36;;;;;;;4.45;2.53;;;;;;;5.99;49.26;101579.09;5076072;28;20056;-65
2022/04/02 06:08:03;;;;;;;2.70;2.17;;;;;;;6.00;49.43;101579.03;5075854;28;20043;-64
2022/04/02 06:10:30;;;;;;;3.40;2.13;;;;;;;6.00;49.32;101581.69;5074732;28;20047;-64
2022/04/02 06:12:56;;;;;;;3.78;2.67;;;;;;;6.04;49.31;101585.13;5075560;28;20067;-65
2022/04/02 06:15:24;;;;;;;3.78;2.40;;;;;;;6.06;49.34;101593.91;5075453;28;20051;-64
2022/04/02 06:17:51;;;;;;;2.45;1.98;;;;;;;6.08;49.20;101593.84;5056963;28;20041;-64
2022/04/02 06:20:19;;;;;;;2.67;1.95;;;;;;;6.10;49.29;101598.19;5075327;28;20076;-65
2022/04/02 06:22:45;;;;;;;4.78;2.17;;;;;;;6.11;49.16;101591.94;5075340;28;20047;-64
2022/04/02 06:25:12;;;;;;;3.90;2.30;;;;;;;6.13;49.17;101600.75;5075404;28;20501;-65
2022/04/02 06:27:43;;;;;;;3.17;2.22;;;;;;;6.16;49.23;101597.94;5057285;28;20036;-64
2022/04/02 06:30:11;;;;;;;6.03;2.30;;;;;;;6.19;48.90;101602.28;5075465;28;20147;-63
2022/04/02 06:32:43;;;;;;;3.78;2.90;;;;;;;6.21;49.34;101611.97;5075199;28;20048;-65
2022/04/02 06:35:11;;;;;;;3.67;2.58;;;;;;;6.25;49.20;101612.69;5073370;28;20148;-64
2022/04/02 06:37:40;;;;;;;3.65;2.30;;;;;;;6.28;49.19;101625.91;5056866;28;20045;-65
2022/04/02 06:40:11;;;;;;;4.55;2.22;;;;;;;6.29;49.10;101625.84;5075214;28;20036;-63
2022/04/02 06:42:38;;;;;;;3.55;2.65;;;;;;;6.32;49.20;101628.41;5057269;28;20040;-64
2022/04/02 06:45:11;;;;;;;2.90;2.35;;;;;;;6.36;49.23;101626.47;5057561;28;20064;-65
2022/04/02 06:47:38;;;;;;;5.75;2.63;;;;;;;6.38;49.23;101625.47;5075394;28;20060;-64
2022/04/02 06:50:06;;;;;;;4.40;2.83;;;;;;;6.41;49.13;101631.63;5075169;28;20036;-65
2022/04/02 06:52:33;;;;;;;3.60;2.28;;;;;;;6.44;49.19;101631.47;5075247;28;20044;-65
2022/04/02 06:55:01;;;;;;;2.53;2.10;;;;;;;6.46;49.04;101634.97;5074735;28;20041;-65
2022/04/02 06:57:28;;;;;;;3.80;2.47;;;;;;;6.48;48.99;101636.63;5074995;28;20037;-64
2022/04/02 06:59:55;;;;;;;5.10;2.72;;;;;;;6.49;49.18;101640.16;5075145;28;20048;-65
2022/04/02 07:02:22;;;;;;;5.43;2.53;;;;;;;6.51;48.93;101643.63;5075267;28;20064;-64
2022/04/02 07:04:48;;;;;;;4.50;2.50;;;;;;;6.53;48.86;101653.31;5075297;28;20072;-64
2022/04/02 07:07:15;;;;;;;4.43;2.70;;;;;;;6.55;48.85;101650.59;5074572;28;20482;-64
2022/04/02 07:09:41;;;;;;;5.03;2.65;;;;;;;6.57;48.90;101659.41;5074586;28;20040;-65
2022/04/02 07:12:09;;;;;;;4.25;2.47;;;;;;;6.61;48.95;101666.34;5075159;28;20045;-64
2022/04/02 07:14:36;;;;;;;5.38;2.90;;;;;;;6.63;48.97;101662.69;5056985;28;20044;-65
2022/04/02 07:17:03;;;;;;;4.35;2.53;;;;;;;6.68;48.98;101665.16;5074786;28;20051;-66
2022/04/02 07:19:32;;;;;;;4.30;2.38;;;;;;;6.70;48.90;101671.34;5056584;28;20063;-65
2022/04/02 07:21:59;;;;;;;3.78;2.75;;;;;;;6.74;48.87;101672.06;5074956;28;20478;-64
2022/04/02 07:24:26;;;;;;;7.45;2.30;;;;;;;6.77;49.01;101671.94;5056626;28;20079;-64
2022/04/02 07:26:54;;;;;;;3.80;2.20;;;;;;;6.80;48.83;101678.03;5074578;28;20048;-63
2022/04/02 07:29:20;;;;;;;4.30;2.28;;;;;;;6.80;48.87;101688.69;5074317;28;20048;-63
2022/04/02 07:31:47;;;;;;;4.40;2.60;;;;;;;6.81;48.94;101689.56;5056708;28;20520;-62
2022/04/02 07:34:21;;;;;;;5.50;3.10;;;;;;;6.84;48.85;101694.78;5040949;28;20048;-62
2022/04/02 07:36:54;;;;;;;6.93;2.67;;;;;;;6.85;49.01;101702.72;5074287;28;20115;-63
2022/04/02 07:39:23;;;;;;;4.28;2.80;;;;;;;6.87;49.19;101700.00;5074241;28;20041;-63
2022/04/02 07:42:23;;;;;;;4.93;3.15;;;;;;;6.89;49.06;101701.66;5057285;28;20056;-63
2022/04/02 07:45:03;;;;;;;5.45;3.13;;;;;;;6.95;49.14;101708.53;4989928;28;20075;-62
2022/04/02 07:47:32;;;;;;;4.65;3.30;;;;;;;7.01;49.19;101709.16;5074146;28;20140;-62
2022/04/02 07:50:13;;;;;;;6.03;3.17;;;;;;;7.06;49.44;101708.97;5074092;28;20061;-62
2022/04/02 07:52:45;;;;;;;5.43;2.90;;;;;;;7.14;49.32;101717.50;5074141;28;20136;-63
2022/04/02 07:55:12;;;;;;;8.25;3.72;;;;;;;7.19;49.30;101715.50;5073989;28;20066;-62
2022/04/02 07:57:41;;;;;;;4.05;3.40;;;;;;;7.26;49.32;101725.00;5056636;28;20047;-62
2022/04/02 08:00:14;;;;;;;4.85;3.10;;;;;;;7.33;49.42;101722.94;5073857;28;20414;-62
2022/04/02 08:02:45;;;;;;;6.55;3.55;;;;;;;7.40;49.46;101718.19;5072477;28;20135;-62
2022/04/02 08:05:23;;;;;;;4.47;3.25;;;;;;;7.46;49.38;101731.31;5056037;28;20131;-62
2022/04/02 08:07:58;;;;;;;5.82;2.92;;;;;;;7.52;49.56;101728.34;5054863;28;20075;-63
2022/04/02 08:10:32;;;;;;;4.15;3.08;;;;;;;7.58;49.42;101730.75;5072612;28;20051;-64
2022/04/02 08:13:00;;;;;;;6.75;3.58;;;;;;;7.62;49.34;101724.34;5055632;28;20040;-64
2022/04/02 08:15:27;;;;;;;5.28;3.53;;;;;;;7.63;49.35;101729.63;5073661;28;20494;-64
2022/04/02 08:18:02;;;;;;;6.70;3.42;;;;;;;7.61;49.13;101736.84;5055221;28;20147;-63
2022/04/02 08:20:29;;;;;;;4.55;3.58;;;;;;;7.62;49.29;101735.03;5076790;28;20406;-65
2022/04/02 08:22:56;;;;;;;7.30;3.47;;;;;;;7.63;49.40;101726.06;5067928;28;20119;-64
2022/04/02 08:25:23;;;;;;;5.00;3.47;;;;;;;7.64;49.38;101747.38;5060936;28;20036;-64
2022/04/02 08:28:04;;;;;;;4.35;3.15;;;;;;;7.64;49.19;101750.06;5076778;28;20040;-64
2022/04/02 08:30:38;;;;;;;5.13;3.30;;;;;;;7.65;49.31;101749.13;5073058;28;20058;-63
2022/04/02 08:33:23;;;;;;;4.53;2.88;;;;;;;7.65;49.30;101751.81;5072802;28;20076;-63
2022/04/02 08:36:10;;;;;;;3.83;3.17;;;;;;;7.65;49.23;101748.25;5055831;28;20036;-63
2022/04/02 08:39:25;;;;;;;5.38;3.10;;;;;;;7.65;49.18;101748.25;5048996;28;20055;-63
2022/04/02 08:42:12;;;;;;;6.45;3.30;;;;;;;7.73;49.53;101748.78;5006550;28;20051;-63
2022/04/02 08:45:08;;;;;;;5.68;3.55;;;;;;;7.84;49.48;101750.97;5069778;28;20036;-64
2022/04/02 08:48:05;;;;;;;5.55;3.30;;;;;;;7.95;49.56;101754.03;5068275;28;20045;-65
2022/04/02 08:50:36;;;;;;;5.40;3.72;;;;;;;8.07;49.51;101761.50;5078389;28;20508;-65
2022/04/02 08:53:28;;;;;;;5.15;3.40;;;;;;;8.18;49.51;101753.00;5076660;28;20068;-64
2022/04/02 08:56:03;;;;;;;6.05;4.18;;;;;;;8.27;49.59;101757.91;5073029;28;20036;-65
2022/04/02 08:59:01;;;;;;;5.93;3.77;;;;;;;8.37;49.46;101753.03;5091634;28;20401;-66
2022/04/02 09:01:38;;;;;;;5.57;3.60;;;;;;;8.50;49.43;101763.09;5073630;28;20298;-65
2022/04/02 09:04:29;;;;;;;5.82;3.97;;;;;;;8.62;49.35;101764.31;5077968;28;20045;-64
2022/04/02 09:07:17;;;;;;;5.80;3.90;;;;;;;8.71;49.30;101768.34;5073949;28;20044;-65
2022/04/02 09:09:59;;;;;;;7.40;4.47;;;;;;;8.77;49.24;101770.72;5068486;28;20121;-65
2022/04/02 09:12:53;;;;;;;5.45;4.20;;;;;;;8.81;49.12;101780.34;5084778;28;20505;-65
2022/04/02 09:15:51;;;;;;;6.82;4.10;;;;;;;8.82;48.99;101780.25;5054260;28;20055;-65
2022/04/02 09:18:37;;;;;;;4.97;3.70;;;;;;;8.83;48.79;101787.34;5053799;28;20045;-66
2022/04/02 09:21:29;;;;;;;6.32;3.95;;;;;;;8.82;48.68;101785.63;5076863;28;20050;-65
2022/04/02 09:24:22;;;;;;;6.03;4.25;;;;;;;8.83;48.73;101779.31;5089597;28;20147;-66
2022/04/02 09:26:49;;;;;;;5.70;3.95;;;;;;;8.84;48.56;101785.56;5055495;28;20049;-65
2022/04/02 09:29:47;;;;;;;8.02;4.03;;;;;;;8.80;48.37;101790.19;5076013;28;20548;-64
2022/04/02 09:32:48;;;;;;;5.30;3.65;;;;;;;8.84;48.33;101796.25;5075921;28;20051;-65
2022/04/02 09:35:34;;;;;;;5.60;4.22;;;;;;;8.88;48.43;101785.31;5071618;28;20052;-68
2022/04/02 09:38:15;;;;;;;5.20;4.32;;;;;;;8.99;48.47;101794.69;5079609;28;20468;-67
2022/04/02 09:40:51;;;;;;;6.40;4.00;;;;;;;9.10;48.60;101790.50;5092000;28;20115;-66
2022/04/02 09:43:27;;;;;;;6.80;4.40;;;;;;;9.22;48.53;101797.06;5062452;28;20041;-67
2022/04/02 09:46:32;;;;;;;6.00;4.03;;;;;;;9.29;48.42;101795.81;5057537;28;20071;-64
2022/04/02 09:49:29;;;;;;;7.10;4.07;;;;;;;9.39;48.38;101794.41;5018544;28;20122;-65
2022/04/02 09:52:05;;;;;;;6.15;4.00;;;;;;;9.55;48.34;101798.03;5004255;28;20054;-66
2022/04/02 09:54:48;;;;;;;5.82;3.92;;;;;;;9.65;48.17;101792.19;5058272;28;20041;-65
2022/04/02 09:57:36;;;;;;;8.70;3.85;;;;;;;9.73;48.16;101792.69;5085904;28;20481;-65
2022/04/02 10:00:09;;;;;;;6.10;3.63;;;;;;;9.76;48.07;101796.06;5085621;28;20441;-64
2022/04/02 10:02:47;;;;;;;5.43;3.38;;;;;;;9.72;47.68;101796.31;5075016;28;20059;-65
2022/04/02 10:05:22;;;;;;;6.32;3.45;;;;;;;9.69;47.51;101796.47;5075995;28;20383;-64
2022/04/02 10:08:04;;;;;;;11.38;3.75;;;;;;;9.62;47.38;101795.03;5074704;28;20037;-65
2022/04/02 10:10:32;;;;;;;6.03;3.50;;;;;;;9.57;47.16;101792.59;5041808;28;20052;-64
2022/04/02 10:13:02;;;;;;;5.50;3.45;;;;;;;9.51;47.12;101784.88;5075865;28;20072;-66
2022/04/02 10:15:31;;;;;;;6.65;3.53;;;;;;;9.46;47.03;101787.78;5075799;28;20460;-65
2022/04/02 10:18:02;;;;;;;7.97;3.50;;;;;;;9.41;46.99;101784.47;5057997;28;20044;-65
2022/04/02 10:20:29;;;;;;;8.40;5.13;;;;;;;9.39;47.07;101782.81;5057618;28;20417;-63
2022/04/02 10:23:14;;;;;;;7.05;4.32;;;;;;;9.39;47.23;101782.81;5073605;28;20033;-65
2022/04/02 10:26:00;;;;;;;4.67;3.60;;;;;;;9.51;47.20;101785.72;5075315;28;20064;-64
2022/04/02 10:28:30;;;;;;;6.82;3.70;;;;;;;9.66;47.57;101777.84;5074794;28;20040;-63
2022/04/02 10:30:57;;;;;;;6.10;3.60;;;;;;;9.73;47.28;101777.47;5072423;28;20119;-64
2022/04/02 10:33:26;;;;;;;5.05;3.40;;;;;;;9.78;47.08;101778.09;5077830;28;20044;-63
2022/04/02 10:35:54;;;;;;;4.85;3.60;;;;;;;9.82;46.94;101768.06;5076965;28;20047;-63
2022/04/02 10:38:32;;;;;;;6.95;3.60;;;;;;;9.89;46.85;101774.84;5075691;28;20064;-64
2022/04/02 10:41:06;;;;;;;5.65;3.60;;;;;;;9.97;46.89;101772.59;5075549;28;20383;-64
2022/04/02 10:43:58;;;;;;;6.03;3.00;;;;;;;10.01;46.53;101768.81;5056818;28;20406;-63
2022/04/02 10:46:26;;;;;;;3.60;2.90;;;;;;;10.03;46.33;101774.97;5074451;28;20405;-63
2022/04/02 10:49:00;;;;;;;4.90;3.00;;;;;;;10.02;46.07;101773.22;5075107;28;20041;-63
2022/04/02 10:51:29;;;;;;;7.13;3.33;;;;;;;10.03;45.95;101766.03;5075317;28;20143;-63
2022/04/02 10:54:13;;;;;;;5.65;3.20;;;;;;;10.08;45.93;101775.56;5075255;28;20044;-63
2022/04/02 10:56:45;;;;;;;4.78;3.58;;;;;;;10.17;46.00;101760.78;5069445;28;20041;-63
2022/04/02 10:59:14;;;;;;;3.67;3.03;;;;;;;10.26;45.87;101760.31;5055222;28;20429;-63
2022/04/02 11:01:43;;;;;;;4.90;3.00;;;;;;;10.34;45.98;101767.94;5056344;28;20044;-63
2022/04/02 11:04:42;;;;;;;5.43;3.60;;;;;;;10.39;45.46;101766.72;5074174;28;20047;-63
2022/04/02 11:07:09;;;;;;;4.05;2.85;;;;;;;10.41;45.22;101769.38;5074847;28;20044;-63
2022/04/02 11:09:41;;;;;;;6.50;3.28;;;;;;;10.42;45.00;101763.03;5056824;28;20045;-63
2022/04/02 11:12:18;;;;;;;4.38;2.20;;;;;;;10.45;45.02;101763.75;5075065;28;20084;-62
2022/04/02 11:14:48;;;;;;;4.85;2.70;;;;;;;10.56;44.83;101760.44;5075111;28;20048;-63
2022/04/02 11:17:29;;;;;;;3.60;2.20;;;;;;;10.66;44.43;101753.59;5074664;28;20049;-62
2022/04/02 11:20:02;;;;;;;5.22;3.08;;;;;;;10.78;44.34;101758.28;5074838;28;20040;-63
2022/04/02 11:22:34;;;;;;;4.80;2.92;;;;;;;10.87;44.33;101756.00;5074240;28;20163;-63
2022/04/02 11:25:05;;;;;;;4.53;2.67;;;;;;;10.91;44.24;101758.44;5056653;28;20063;-62
2022/04/02 11:27:37;;;;;;;3.83;2.80;;;;;;;10.89;43.97;101759.47;5056539;28;20045;-63
2022/04/02 11:30:15;;;;;;;3.13;2.00;;;;;;;10.84;43.72;101751.69;5074879;28;20074;-63
2022/04/02 11:32:45;;;;;;;4.45;2.63;;;;;;;10.78;43.46;101752.91;5056952;28;20403;-63
2022/04/02 11:35:23;;;;;;;4.75;2.60;;;;;;;10.76;43.35;101759.31;5056053;28;20054;-62
2022/04/02 11:38:14;;;;;;;2.47;2.03;;;;;;;10.71;43.09;101748.84;5073504;28;20036;-63
2022/04/02 11:40:45;;;;;;;3.33;2.03;;;;;;;10.74;43.27;101754.03;5074193;28;20119;-63
2022/04/02 11:43:13;;;;;;;4.78;2.20;;;;;;;10.77;43.08;101756.53;5074220;28;20554;-63
2022/04/02 11:45:41;;;;;;;3.22;1.88;;;;;;;10.80;42.89;101763.56;5074070;28;20055;-63
2022/04/02 11:48:13;;;;;;;5.72;2.20;;;;;;;10.79;42.56;101756.44;5056087;28;20051;-63
2022/04/02 11:50:43;;;;;;;2.75;2.03;;;;;;;10.77;42.43;101761.03;5073532;28;20046;-62
2022/04/02 11:53:12;;;;;;;3.22;2.58;;;;;;;10.73;42.27;101759.50;5073907;28;20047;-63
2022/04/02 11:55:41;;;;;;;3.25;2.17;;;;;;;10.70;42.27;101773.09;5073823;28;20155;-64
2022/04/02 11:58:13;;;;;;;3.00;1.80;;;;;;;10.64;42.10;101777.00;5073549;28;20422;-64
2022/04/02 12:00:43;;;;;;;5.53;1.85;;;;;;;10.61;41.92;101779.00;5074100;28;20086;-64
2022/04/02 12:03:21;;;;;;;3.67;2.03;;;;;;;10.53;41.64;101775.88;5074205;28;20044;-64